Time;durP1;ratioP1;P1;durP2;ratioP2;P2;SDS_P1;SDS_P2;PMS_P1;PMS_P2;Temp;Humidity;BMP_temperature;BMP_pressure;BME280_temperature;BME280_humidity;BME280_pressure;Samples;Min_cycle;Max_cycle;Signal;HPM_P1;HPM_P2
2023/09/13 00:00:37;;;;;;;11.77;9.02;;;20.20;99.90;;;;;;5036721;28;20060;-89
2023/09/13 00:03:03;;;;;;;12.18;9.30;;;20.20;99.90;;;;;;5020145;28;20040;-89
2023/09/13 00:05:28;;;;;;;13.50;9.00;;;20.20;99.90;;;;;;5036800;28;20036;-89
2023/09/13 00:07:54;;;;;;;13.13;9.18;;;20.20;99.90;;;;;;5036235;28;20111;-88
2023/09/13 00:10:21;;;;;;;13.60;9.23;;;20.20;99.90;;;;;;5036560;28;20040;-89
2023/09/13 00:12:47;;;;;;;12.63;8.90;;;20.20;99.90;;;;;;5020289;28;20526;-88
2023/09/13 00:15:12;;;;;;;13.73;9.98;;;20.20;99.90;;;;;;5020152;28;20122;-89
2023/09/13 00:17:38;;;;;;;19.45;13.57;;;20.20;99.90;;;;;;5019963;28;20045;-89
2023/09/13 00:20:07;;;;;;;14.77;12.40;;;20.30;99.90;;;;;;5019906;28;20033;-88
2023/09/13 00:22:33;;;;;;;18.08;14.60;;;20.30;99.90;;;;;;5036637;28;20086;-89
2023/09/13 00:24:58;;;;;;;20.33;14.40;;;20.30;99.90;;;;;;5036327;28;20037;-88
2023/09/13 00:27:24;;;;;;;17.30;14.18;;;20.30;99.90;;;;;;5035786;28;20057;-88
2023/09/13 00:29:49;;;;;;;16.80;13.85;;;20.30;99.90;;;;;;5036631;28;20114;-89
2023/09/13 00:32:15;;;;;;;20.40;14.88;;;20.30;99.90;;;;;;5036065;28;20036;-88
2023/09/13 00:34:40;;;;;;;18.40;14.23;;;20.30;99.90;;;;;;5035723;28;20037;-89
2023/09/13 00:37:06;;;;;;;21.30;14.52;;;20.30;99.90;;;;;;5036375;28;20131;-88
2023/09/13 00:39:31;;;;;;;20.48;14.57;;;20.30;99.90;;;;;;5035526;28;20040;-88
2023/09/13 00:41:58;;;;;;;20.00;14.57;;;20.30;99.90;;;;;;5019964;28;20385;-88
2023/09/13 00:44:23;;;;;;;20.75;14.13;;;20.30;99.90;;;;;;5036239;28;20041;-88
2023/09/13 00:46:49;;;;;;;18.55;13.80;;;20.30;99.90;;;;;;5035757;28;20048;-88
2023/09/13 00:49:15;;;;;;;18.20;14.07;;;20.30;99.90;;;;;;5019355;28;20049;-88
2023/09/13 00:51:41;;;;;;;16.98;12.40;;;20.30;99.90;;;;;;5019404;28;20048;-88
2023/09/13 00:54:09;;;;;;;22.13;12.10;;;20.30;99.90;;;;;;5034994;28;20504;-88
2023/09/13 00:56:36;;;;;;;18.20;11.52;;;20.30;99.90;;;;;;5019139;28;20514;-89
2023/09/13 00:59:02;;;;;;;17.33;11.32;;;20.30;99.90;;;;;;5018413;28;20032;-88
2023/09/13 01:01:28;;;;;;;15.68;11.48;;;20.30;99.90;;;;;;5035748;28;20044;-89
2023/09/13 01:03:56;;;;;;;18.10;10.68;;;20.30;99.90;;;;;;5035708;28;20091;-89
2023/09/13 01:06:22;;;;;;;19.33;11.50;;;20.30;99.90;;;;;;5019295;28;20072;-89
2023/09/13 01:08:48;;;;;;;16.40;10.70;;;20.30;99.90;;;;;;5035019;28;20110;-88
2023/09/13 01:11:14;;;;;;;17.00;11.00;;;20.30;99.90;;;;;;5035451;28;20044;-89
2023/09/13 01:13:39;;;;;;;20.70;11.63;;;20.30;99.90;;;;;;5018921;28;20059;-89
2023/09/13 01:16:32;;;;;;;21.42;10.23;;;20.30;99.90;;;;;;5035112;28;20040;-89
2023/09/13 01:19:47;;;;;;;16.88;11.10;;;20.30;99.90;;;;;;5034866;28;20040;-89
2023/09/13 01:22:42;;;;;;;24.13;11.77;;;20.20;99.90;;;;;;5023012;28;20048;-89
2023/09/13 01:25:08;;;;;;;17.38;11.23;;;20.20;99.90;;;;;;5027388;28;20087;-88
2023/09/13 01:28:24;;;;;;;18.92;11.30;;;20.20;99.90;;;;;;5018138;28;20036;-89
2023/09/13 01:30:50;;;;;;;15.43;10.18;;;20.20;99.90;;;;;;5035273;28;20037;-90
2023/09/13 01:33:16;;;;;;;19.08;10.60;;;20.10;99.90;;;;;;5034574;28;20052;-89
2023/09/13 01:35:41;;;;;;;16.85;9.25;;;20.20;99.90;;;;;;5034912;28;20037;-89
2023/09/13 01:38:07;;;;;;;18.27;9.07;;;20.20;99.90;;;;;;5017912;28;20407;-89
2023/09/13 01:40:36;;;;;;;16.20;8.80;;;20.20;99.90;;;;;;5018600;28;20040;-89
2023/09/13 01:43:03;;;;;;;18.40;8.48;;;20.10;99.90;;;;;;5035261;28;20504;-89
2023/09/13 01:45:32;;;;;;;14.48;8.02;;;20.10;99.90;;;;;;5034836;28;20037;-89
2023/09/13 01:47:59;;;;;;;16.88;8.32;;;20.10;99.90;;;;;;5034114;28;20037;-89
2023/09/13 01:50:25;;;;;;;15.45;7.28;;;20.10;99.90;;;;;;5034939;28;20037;-89
2023/09/13 01:52:50;;;;;;;16.52;7.68;;;20.10;99.90;;;;;;5035110;28;20047;-89
2023/09/13 01:55:16;;;;;;;14.75;7.82;;;20.10;99.90;;;;;;5034660;28;20441;-88
2023/09/13 01:57:41;;;;;;;17.05;8.23;;;20.10;99.90;;;;;;5017770;28;20115;-88
2023/09/13 02:00:07;;;;;;;14.27;7.35;;;20.00;99.90;;;;;;5034216;28;20174;-89
2023/09/13 02:02:33;;;;;;;16.23;7.75;;;20.00;99.90;;;;;;5034765;28;20440;-89
2023/09/13 02:04:59;;;;;;;18.45;7.80;;;20.00;99.90;;;;;;5018205;28;20033;-89
2023/09/13 02:07:24;;;;;;;16.25;7.47;;;20.00;99.90;;;;;;5034346;28;20040;-88
2023/09/13 02:09:52;;;;;;;14.32;6.13;;;20.00;99.90;;;;;;5017251;28;20094;-89
2023/09/13 02:12:17;;;;;;;16.17;6.82;;;20.00;99.90;;;;;;5017665;28;20045;-88
2023/09/13 02:14:43;;;;;;;15.18;6.68;;;20.00;99.90;;;;;;5017800;28;20122;-88
2023/09/13 02:17:09;;;;;;;12.73;5.40;;;19.90;99.90;;;;;;5017573;28;20037;-88
2023/09/13 02:19:35;;;;;;;17.42;6.32;;;19.90;99.90;;;;;;5033343;28;20454;-88
2023/09/13 02:22:01;;;;;;;11.63;5.60;;;19.90;99.90;;;;;;5016486;28;20458;-88
2023/09/13 02:24:26;;;;;;;12.20;5.20;;;19.90;99.90;;;;;;5033617;28;20124;-88
2023/09/13 02:26:56;;;;;;;14.25;5.30;;;19.80;99.90;;;;;;5033668;28;20679;-88
2023/09/13 02:29:23;;;;;;;13.23;5.03;;;19.80;99.90;;;;;;5015722;28;20041;-88
2023/09/13 02:31:49;;;;;;;11.90;5.10;;;19.80;99.90;;;;;;5033241;28;20051;-88
2023/09/13 02:34:14;;;;;;;10.00;4.25;;;19.80;99.90;;;;;;5032805;28;20036;-88
2023/09/13 02:36:40;;;;;;;12.38;4.65;;;19.80;99.90;;;;;;5033147;28;20568;-88
2023/09/13 02:39:25;;;;;;;10.98;4.07;;;19.80;99.90;;;;;;5033128;28;20044;-88
2023/09/13 02:41:51;;;;;;;11.23;3.85;;;19.70;99.90;;;;;;5033919;28;20037;-86
2023/09/13 02:44:17;;;;;;;12.35;4.22;;;19.70;99.90;;;;;;5034123;28;20055;-88
2023/09/13 02:46:42;;;;;;;12.00;3.70;;;19.70;99.90;;;;;;5034195;28;20037;-88
2023/09/13 02:49:08;;;;;;;8.02;2.22;;;19.70;99.90;;;;;;5033237;28;20076;-88
2023/09/13 02:51:33;;;;;;;11.88;3.67;;;19.60;99.90;;;;;;5033865;28;20044;-88
2023/09/13 02:53:59;;;;;;;11.07;3.42;;;19.50;99.90;;;;;;5033805;28;20049;-88
2023/09/13 02:56:24;;;;;;;11.43;3.47;;;19.50;99.90;;;;;;5017223;28;20523;-89
2023/09/13 02:58:50;;;;;;;10.70;3.10;;;19.50;99.90;;;;;;5033316;28;20045;-89
2023/09/13 03:01:17;;;;;;;10.43;3.58;;;19.50;99.90;;;;;;5033552;28;20037;-89
2023/09/13 03:03:42;;;;;;;13.40;3.63;;;19.50;99.90;;;;;;5017426;28;20073;-88
2023/09/13 03:06:18;;;;;;;9.27;3.28;;;19.50;99.90;;;;;;5036880;28;20087;-88
2023/09/13 03:08:43;;;;;;;15.02;4.13;;;19.50;99.90;;;;;;5027350;28;20080;-88
2023/09/13 03:11:14;;;;;;;11.30;3.80;;;19.40;99.90;;;;;;5018567;28;20527;-87
2023/09/13 03:13:39;;;;;;;12.57;3.45;;;19.40;99.90;;;;;;5018741;28;20033;-89
2023/09/13 03:16:17;;;;;;;11.23;3.90;;;19.40;99.90;;;;;;5034624;28;20496;-88
2023/09/13 03:18:43;;;;;;;11.18;3.70;;;19.40;99.90;;;;;;5018190;28;20072;-87
2023/09/13 03:21:10;;;;;;;13.98;4.13;;;19.30;99.90;;;;;;5035567;28;20059;-89
2023/09/13 03:23:45;;;;;;;11.50;3.85;;;19.30;99.90;;;;;;5038563;28;20047;-89
2023/09/13 03:26:21;;;;;;;11.43;4.00;;;19.30;99.90;;;;;;5036721;28;20241;-88
2023/09/13 03:28:49;;;;;;;12.95;3.88;;;19.30;99.90;;;;;;5021640;28;20658;-87
2023/09/13 03:31:17;;;;;;;11.57;3.42;;;19.30;99.90;;;;;;5038094;28;20627;-88
2023/09/13 03:33:44;;;;;;;9.55;3.65;;;19.30;99.90;;;;;;5021336;28;20569;-88
2023/09/13 03:36:11;;;;;;;11.93;4.10;;;19.30;99.90;;;;;;5037158;28;20041;-88
2023/09/13 03:38:39;;;;;;;9.93;3.92;;;19.30;99.90;;;;;;5036930;28;20041;-89
2023/09/13 03:41:09;;;;;;;9.32;4.00;;;19.30;99.90;;;;;;5020432;28;20171;-89
2023/09/13 03:43:35;;;;;;;11.48;4.05;;;19.20;99.90;;;;;;5037443;28;20554;-88
2023/09/13 03:46:03;;;;;;;11.43;4.25;;;19.20;99.90;;;;;;5037208;28;20045;-87
2023/09/13 03:48:30;;;;;;;8.90;2.47;;;19.20;99.90;;;;;;5036667;28;20045;-88
2023/09/13 03:50:56;;;;;;;9.50;3.83;;;19.10;99.90;;;;;;5037325;28;20048;-88
2023/09/13 03:53:21;;;;;;;12.20;4.35;;;19.10;99.90;;;;;;5020533;28;20045;-88
2023/09/13 03:55:47;;;;;;;11.70;4.95;;;19.10;99.90;;;;;;5020512;28;20060;-88
2023/09/13 03:58:12;;;;;;;11.20;4.30;;;19.10;99.90;;;;;;5036640;28;20403;-88
2023/09/13 04:00:38;;;;;;;11.95;4.68;;;19.10;99.90;;;;;;5036753;28;20041;-87
2023/09/13 04:03:04;;;;;;;11.07;4.00;;;19.10;99.90;;;;;;5036945;28;20044;-88
2023/09/13 04:05:30;;;;;;;11.15;4.70;;;19.00;99.90;;;;;;5020439;28;20052;-88
2023/09/13 04:07:59;;;;;;;13.20;4.53;;;19.00;99.90;;;;;;5020040;28;20041;-88
2023/09/13 04:10:25;;;;;;;12.73;4.32;;;19.00;99.90;;;;;;5020002;28;20079;-88
2023/09/13 04:12:51;;;;;;;12.48;4.60;;;19.00;99.90;;;;;;5036964;28;20056;-88
2023/09/13 04:15:16;;;;;;;11.27;4.55;;;19.00;99.90;;;;;;5036333;28;20083;-89
2023/09/13 04:17:42;;;;;;;10.75;4.60;;;19.00;99.90;;;;;;5019885;28;20048;-88
2023/09/13 04:20:10;;;;;;;12.32;4.45;;;19.00;99.90;;;;;;5018383;28;20090;-88
2023/09/13 04:22:36;;;;;;;7.63;2.30;;;19.00;99.90;;;;;;5019705;28;20040;-88
2023/09/13 04:25:03;;;;;;;10.60;4.25;;;18.90;99.90;;;;;;5053065;28;20037;-88
2023/09/13 04:27:28;;;;;;;11.75;4.95;;;18.90;99.90;;;;;;5019642;28;20037;-87
2023/09/13 04:29:57;;;;;;;11.45;4.72;;;18.90;99.90;;;;;;5036050;28;20094;-88
2023/09/13 04:32:26;;;;;;;10.45;4.50;;;18.90;99.90;;;;;;5036228;28;20515;-87
2023/09/13 04:34:52;;;;;;;13.40;5.03;;;18.90;99.90;;;;;;5019633;28;20489;-87
2023/09/13 04:37:19;;;;;;;10.43;4.60;;;18.90;99.90;;;;;;5035797;28;20036;-87
2023/09/13 04:39:44;;;;;;;12.85;4.63;;;18.90;99.90;;;;;;5019414;28;20033;-87
2023/09/13 04:42:11;;;;;;;10.63;2.88;;;18.80;99.90;;;;;;5019681;28;20048;-88
2023/09/13 04:44:37;;;;;;;10.02;4.38;;;18.80;99.90;;;;;;5020048;28;20072;-88
2023/09/13 04:47:03;;;;;;;10.10;4.15;;;18.80;99.90;;;;;;5019432;28;20412;-88
2023/09/13 04:49:29;;;;;;;12.55;4.82;;;18.70;99.90;;;;;;5018492;28;20128;-87
2023/09/13 04:51:56;;;;;;;12.30;4.78;;;18.80;99.90;;;;;;5019203;28;20477;-88
2023/09/13 04:54:22;;;;;;;12.02;4.28;;;18.80;99.90;;;;;;5035792;28;20037;-88
2023/09/13 04:56:51;;;;;;;11.43;5.20;;;18.70;99.90;;;;;;5019241;28;20064;-87
2023/09/13 04:59:17;;;;;;;12.15;5.20;;;18.70;99.90;;;;;;5018961;28;20037;-88
2023/09/13 05:01:44;;;;;;;12.77;4.53;;;18.70;99.90;;;;;;5035671;28;20158;-88
2023/09/13 05:04:10;;;;;;;9.93;4.32;;;18.70;99.90;;;;;;5035530;28;20047;-87
2023/09/13 05:06:36;;;;;;;12.23;4.93;;;18.70;99.90;;;;;;5019230;28;20147;-88
2023/09/13 05:09:02;;;;;;;12.00;5.05;;;18.70;99.90;;;;;;5035314;28;20033;-88
2023/09/13 05:11:28;;;;;;;12.30;4.10;;;18.70;99.90;;;;;;5018846;28;20094;-88
2023/09/13 05:14:14;;;;;;;10.70;4.60;;;18.60;99.90;;;;;;5035706;28;20116;-89
2023/09/13 05:16:40;;;;;;;13.20;5.30;;;18.60;99.90;;;;;;5034421;28;20029;-89
2023/09/13 05:19:05;;;;;;;13.20;5.03;;;18.60;99.90;;;;;;5034447;28;20091;-89
2023/09/13 05:21:31;;;;;;;11.68;4.95;;;18.70;99.90;;;;;;5032274;28;20045;-89
2023/09/13 05:23:56;;;;;;;11.00;4.80;;;18.70;99.90;;;;;;5032830;28;20045;-89
2023/09/13 05:26:22;;;;;;;12.05;4.97;;;18.60;99.90;;;;;;5032877;28;20044;-89
2023/09/13 05:28:47;;;;;;;11.88;4.95;;;18.60;99.90;;;;;;5032182;28;20164;-89
2023/09/13 05:31:14;;;;;;;13.95;4.53;;;18.50;99.90;;;;;;5018211;28;20044;-88
2023/09/13 05:33:39;;;;;;;12.80;5.22;;;18.50;99.90;;;;;;5018517;28;20175;-88
2023/09/13 05:36:12;;;;;;;10.88;4.80;;;18.50;99.90;;;;;;5035003;28;20124;-89
2023/09/13 05:38:38;;;;;;;;;;;18.50;99.90;;;;;;5034958;28;20166;-88
2023/09/13 05:41:11;;;;;;;12.27;5.05;;;18.40;99.90;;;;;;5042805;28;20003;-89
2023/09/13 05:43:42;;;;;;;11.52;4.85;;;18.40;99.90;;;;;;5039364;28;20056;-88
2023/09/13 05:46:08;;;;;;;13.70;5.15;;;18.40;99.90;;;;;;5051754;28;20033;-89
2023/09/13 05:48:35;;;;;;;10.60;4.65;;;18.50;99.90;;;;;;5043366;28;20032;-88
2023/09/13 05:51:02;;;;;;;12.55;4.75;;;18.50;99.90;;;;;;5043941;28;20552;-89
2023/09/13 05:53:29;;;;;;;10.95;4.90;;;18.50;99.90;;;;;;5023106;28;20044;-89
2023/09/13 05:55:55;;;;;;;12.02;4.32;;;18.50;99.90;;;;;;5020674;28;20518;-88
2023/09/13 05:58:20;;;;;;;17.42;4.43;;;18.50;99.90;;;;;;5017514;28;20037;-89
2023/09/13 06:00:48;;;;;;;9.10;2.72;;;18.50;99.90;;;;;;5017906;28;20062;-89
2023/09/13 06:03:18;;;;;;;13.75;3.40;;;18.40;99.90;;;;;;5034448;28;20495;-89
2023/09/13 06:05:44;;;;;;;10.65;2.92;;;18.40;99.90;;;;;;5034657;28;20037;-88
2023/09/13 06:08:09;;;;;;;9.82;2.50;;;18.30;99.90;;;;;;5033963;28;20033;-89
2023/09/13 06:10:35;;;;;;;11.15;3.03;;;18.20;99.90;;;;;;5031279;28;20048;-89
2023/09/13 06:13:01;;;;;;;10.95;2.55;;;18.10;99.90;;;;;;5028666;28;20140;-88
2023/09/13 06:15:26;;;;;;;12.20;2.83;;;18.00;99.90;;;;;;5031269;28;20043;-88
2023/09/13 06:17:53;;;;;;;11.30;2.90;;;18.00;99.90;;;;;;5014439;28;20123;-88
2023/09/13 06:20:19;;;;;;;15.23;3.15;;;17.80;99.90;;;;;;5015056;28;20080;-88
2023/09/13 06:22:45;;;;;;;11.05;2.40;;;17.80;99.90;;;;;;5031729;28;20625;-88
2023/09/13 06:25:10;;;;;;;15.48;4.00;;;17.60;99.90;;;;;;5017878;28;20092;-87
2023/09/13 06:27:36;;;;;;;13.68;3.70;;;17.60;99.90;;;;;;5036579;28;20033;-88
2023/09/13 06:30:02;;;;;;;14.65;3.33;;;17.50;99.90;;;;;;5034140;28;20154;-88
2023/09/13 06:32:28;;;;;;;11.70;3.05;;;17.40;99.90;;;;;;5034259;28;20048;-88
2023/09/13 06:34:58;;;;;;;10.07;2.55;;;17.40;99.90;;;;;;5036702;28;20471;-88
2023/09/13 06:37:25;;;;;;;10.70;2.90;;;17.30;99.90;;;;;;5040104;28;20029;-88
2023/09/13 06:39:51;;;;;;;9.60;2.40;;;17.20;99.90;;;;;;5033781;28;20116;-88
2023/09/13 06:42:17;;;;;;;8.98;2.55;;;17.10;99.90;;;;;;5033770;28;20099;-87
2023/09/13 06:44:43;;;;;;;9.77;2.95;;;17.00;99.90;;;;;;5033808;28;20405;-88
2023/09/13 06:47:08;;;;;;;9.73;2.65;;;16.90;99.90;;;;;;5033326;28;20059;-88
2023/09/13 06:49:35;;;;;;;9.60;2.60;;;16.90;99.90;;;;;;5041456;28;20059;-87
2023/09/13 06:52:01;;;;;;;4.95;1.67;;;16.90;99.90;;;;;;5041420;28;20049;-88
2023/09/13 06:54:27;;;;;;;7.38;2.10;;;16.80;99.90;;;;;;5016954;28;20037;-88
2023/09/13 06:56:53;;;;;;;9.35;2.25;;;16.70;99.90;;;;;;5016978;28;20394;-88
2023/09/13 06:59:19;;;;;;;10.40;1.83;;;16.70;99.90;;;;;;5032900;28;20033;-88
2023/09/13 07:01:45;;;;;;;8.15;2.40;;;16.70;99.90;;;;;;5016618;28;20076;-88
2023/09/13 07:04:11;;;;;;;9.45;2.65;;;16.70;99.90;;;;;;5032820;28;20052;-86
2023/09/13 07:06:37;;;;;;;7.53;2.28;;;16.70;99.90;;;;;;5016183;28;20577;-88
2023/09/13 07:09:03;;;;;;;12.27;2.40;;;16.70;99.90;;;;;;5015986;28;20045;-88
2023/09/13 07:11:29;;;;;;;7.47;2.13;;;16.70;99.90;;;;;;5033438;28;20107;-88
2023/09/13 07:13:54;;;;;;;6.55;1.55;;;16.60;99.90;;;;;;5033197;28;20587;-88
2023/09/13 07:16:20;;;;;;;8.48;2.53;;;16.60;99.90;;;;;;5016874;28;20435;-88
2023/09/13 07:18:45;;;;;;;6.18;1.75;;;16.60;99.90;;;;;;5015998;28;20075;-88
2023/09/13 07:21:11;;;;;;;5.95;1.85;;;16.60;99.90;;;;;;5033592;28;20446;-88
2023/09/13 07:23:37;;;;;;;3.22;1.20;;;16.70;99.90;;;;;;5016879;28;20539;-88
2023/09/13 07:26:02;;;;;;;7.05;2.08;;;16.60;99.90;;;;;;5017018;28;20063;-88
2023/09/13 07:28:28;;;;;;;5.60;1.30;;;16.60;99.90;;;;;;5033227;28;20044;-88
2023/09/13 07:30:54;;;;;;;7.35;2.28;;;16.60;99.90;;;;;;5016959;28;20090;-89
2023/09/13 07:33:20;;;;;;;7.20;2.20;;;16.60;99.90;;;;;;5015759;28;20519;-89
2023/09/13 07:35:46;;;;;;;9.45;2.35;;;16.70;99.90;;;;;;5032858;28;20040;-88
2023/09/13 07:38:11;;;;;;;4.43;1.30;;;16.70;99.90;;;;;;5031769;28;20037;-88
2023/09/13 07:40:40;;;;;;;7.68;2.22;;;16.60;99.90;;;;;;5033112;28;20041;-88
2023/09/13 07:43:08;;;;;;;9.05;3.28;;;16.60;99.90;;;;;;5033130;28;20041;-88
2023/09/13 07:45:34;;;;;;;9.05;2.67;;;16.70;99.90;;;;;;5015892;28;20037;-88
2023/09/13 07:48:02;;;;;;;9.48;2.78;;;16.70;99.90;;;;;;5016493;28;20426;-88
2023/09/13 07:50:40;;;;;;;4.40;1.27;;;16.70;99.90;;;;;;5033414;28;20079;-88
2023/09/13 07:53:07;;;;;;;10.18;2.45;;;16.70;99.90;;;;;;5016732;28;20052;-88
2023/09/13 07:55:33;;;;;;;6.40;2.03;;;16.70;99.90;;;;;;5029762;28;20037;-88
2023/09/13 07:57:59;;;;;;;7.80;2.20;;;16.70;99.90;;;;;;5026105;28;20045;-88
2023/09/13 08:00:25;;;;;;;12.05;3.88;;;16.70;99.90;;;;;;5029842;28;20029;-88
2023/09/13 08:02:50;;;;;;;10.90;3.20;;;16.80;99.90;;;;;;5012531;28;20041;-88
2023/09/13 08:05:16;;;;;;;9.63;3.97;;;16.80;99.90;;;;;;5016898;28;20496;-88
2023/09/13 08:07:44;;;;;;;11.18;4.07;;;16.90;99.90;;;;;;5034834;28;20132;-88
2023/09/13 08:10:10;;;;;;;10.23;3.63;;;16.90;99.90;;;;;;5036809;28;20056;-87
2023/09/13 08:12:36;;;;;;;9.82;3.10;;;17.00;99.90;;;;;;5036470;28;20037;-88
2023/09/13 08:15:03;;;;;;;8.02;1.95;;;17.00;99.90;;;;;;5022590;28;20068;-87
2023/09/13 08:17:29;;;;;;;10.23;3.00;;;16.90;99.90;;;;;;5045912;28;20492;-87
2023/09/13 08:19:56;;;;;;;9.50;3.63;;;16.90;99.90;;;;;;5029206;28;20033;-88
2023/09/13 08:22:21;;;;;;;12.85;4.38;;;16.90;99.90;;;;;;5045650;28;20116;-88
2023/09/13 08:24:47;;;;;;;11.18;3.90;;;16.90;99.90;;;;;;5046198;28;20467;-88
2023/09/13 08:27:13;;;;;;;8.38;2.65;;;16.90;99.90;;;;;;5045905;28;20040;-88
2023/09/13 08:29:39;;;;;;;10.18;3.40;;;16.90;99.90;;;;;;5039431;28;20579;-88
2023/09/13 08:32:05;;;;;;;7.32;2.58;;;16.90;99.90;;;;;;5035855;28;20049;-88
2023/09/13 08:34:32;;;;;;;11.15;3.45;;;16.90;99.90;;;;;;5036097;28;20451;-88
2023/09/13 08:36:58;;;;;;;7.45;1.92;;;16.90;99.90;;;;;;5036221;28;20403;-88
2023/09/13 08:39:24;;;;;;;10.57;3.42;;;16.90;99.90;;;;;;5017737;28;20510;-88
2023/09/13 08:41:53;;;;;;;9.48;1.80;;;16.90;99.90;;;;;;5035567;28;20175;-88
2023/09/13 08:44:20;;;;;;;11.75;3.30;;;16.90;99.90;;;;;;5033202;28;20044;-87
2023/09/13 08:46:55;;;;;;;9.82;2.33;;;16.90;99.90;;;;;;5016141;28;20415;-88
2023/09/13 08:49:21;;;;;;;12.35;3.30;;;16.90;99.90;;;;;;5032487;28;20087;-88
2023/09/13 08:51:47;;;;;;;11.20;2.55;;;16.90;99.90;;;;;;5034972;28;20455;-88
2023/09/13 08:54:14;;;;;;;11.20;3.80;;;16.90;99.90;;;;;;5035936;28;20040;-88
2023/09/13 08:56:43;;;;;;;11.30;3.47;;;17.00;99.90;;;;;;5019226;28;20412;-88
2023/09/13 08:59:12;;;;;;;7.35;2.45;;;17.00;99.90;;;;;;5034360;28;20082;-88
2023/09/13 09:01:40;;;;;;;9.63;3.35;;;16.90;99.90;;;;;;5018661;28;20439;-87
2023/09/13 09:04:06;;;;;;;10.13;3.70;;;16.90;99.90;;;;;;5035276;28;20037;-87
2023/09/13 09:06:31;;;;;;;9.98;3.28;;;17.00;99.90;;;;;;5019113;28;20060;-88
2023/09/13 09:08:58;;;;;;;9.70;3.30;;;17.00;99.90;;;;;;5035347;28;20048;-88
2023/09/13 09:11:27;;;;;;;9.13;3.15;;;17.00;99.90;;;;;;5019246;28;20403;-88
2023/09/13 09:13:58;;;;;;;5.93;2.67;;;17.10;99.90;;;;;;5035505;28;20467;-88
2023/09/13 09:16:26;;;;;;;11.38;3.47;;;17.10;99.90;;;;;;5035522;28;20036;-88
2023/09/13 09:18:53;;;;;;;7.65;2.42;;;17.20;99.90;;;;;;5018166;28;20032;-89
2023/09/13 09:21:19;;;;;;;10.13;3.40;;;17.20;99.90;;;;;;5035265;28;20045;-88
2023/09/13 09:23:45;;;;;;;8.70;3.03;;;17.30;99.90;;;;;;5035364;28;20067;-88
2023/09/13 09:26:11;;;;;;;8.88;3.20;;;17.50;99.90;;;;;;5034642;28;20041;-88
2023/09/13 09:28:36;;;;;;;9.75;3.78;;;17.70;99.90;;;;;;5033987;28;20072;-90
2023/09/13 09:31:03;;;;;;;9.88;3.88;;;17.80;99.90;;;;;;5018201;28;20415;-90
2023/09/13 09:33:30;;;;;;;10.00;2.30;;;17.90;99.90;;;;;;5017573;28;20037;-88
2023/09/13 09:35:58;;;;;;;9.98;3.60;;;18.00;99.90;;;;;;5034273;28;20091;-89
2023/09/13 09:38:26;;;;;;;11.75;3.90;;;18.00;99.90;;;;;;5017957;28;20033;-89
2023/09/13 09:40:56;;;;;;;10.68;3.95;;;18.20;99.90;;;;;;5043137;28;20072;-88
2023/09/13 09:43:22;;;;;;;9.20;3.22;;;18.30;99.90;;;;;;5043334;28;20043;-89
2023/09/13 09:45:48;;;;;;;11.52;5.05;;;18.30;99.90;;;;;;5043546;28;20033;-90
2023/09/13 09:48:14;;;;;;;12.60;4.38;;;18.30;99.90;;;;;;5043013;28;20043;-90
2023/09/13 09:50:48;;;;;;;11.75;5.05;;;18.40;99.90;;;;;;5027111;28;20496;-89
2023/09/13 09:53:15;;;;;;;9.82;4.60;;;18.50;99.90;;;;;;5040588;28;20029;-89
2023/09/13 09:55:44;;;;;;;10.30;4.72;;;18.50;99.90;;;;;;5023491;28;20028;-89
2023/09/13 09:58:11;;;;;;;10.80;3.65;;;18.60;99.90;;;;;;5023239;28;20033;-89
2023/09/13 10:00:47;;;;;;;10.98;3.30;;;18.70;99.90;;;;;;5038155;28;20087;-89
2023/09/13 10:03:17;;;;;;;9.38;3.28;;;18.80;99.90;;;;;;5036684;28;20036;-89
2023/09/13 10:05:55;;;;;;;10.40;4.40;;;18.90;99.90;;;;;;5043263;28;20024;-89
2023/09/13 10:08:37;;;;;;;11.45;4.10;;;18.80;99.90;;;;;;5040300;28;20035;-89
2023/09/13 10:11:02;;;;;;;9.83;3.53;;;18.80;99.90;;;;;;5025803;28;20515;-89
2023/09/13 10:13:31;;;;;;;10.10;3.05;;;18.80;99.90;;;;;;5042851;28;20272;-89
2023/09/13 10:16:00;;;;;;;11.15;3.03;;;18.80;99.90;;;;;;5041922;28;20484;-88
2023/09/13 10:18:26;;;;;;;10.70;2.72;;;18.90;99.90;;;;;;5057911;28;20040;-89
2023/09/13 10:20:58;;;;;;;8.63;2.90;;;19.10;99.90;;;;;;5040461;28;20040;-88
2023/09/13 10:23:37;;;;;;;9.60;2.80;;;19.30;99.90;;;;;;5050632;28;20048;-89
2023/09/13 10:26:06;;;;;;;11.40;3.10;;;19.30;99.90;;;;;;5043282;28;20083;-88
2023/09/13 10:28:35;;;;;;;11.65;2.80;;;19.40;99.90;;;;;;5046303;28;20725;-89
2023/09/13 10:31:03;;;;;;;9.18;2.80;;;19.50;99.90;;;;;;5036033;28;20048;-88
2023/09/13 10:33:32;;;;;;;10.27;2.80;;;19.60;99.90;;;;;;5017447;28;20040;-89
2023/09/13 10:36:00;;;;;;;9.95;2.97;;;19.70;99.90;;;;;;5017620;28;20758;-89
2023/09/13 10:39:00;;;;;;;8.65;2.80;;;19.80;99.90;;;;;;5033388;28;20551;-89
2023/09/13 10:41:30;;;;;;;12.23;3.40;;;19.90;99.90;;;;;;5033414;28;20040;-88
2023/09/13 10:43:57;;;;;;;9.40;2.70;;;20.00;99.90;;;;;;5017436;28;20037;-89
2023/09/13 10:46:23;;;;;;;12.07;3.22;;;20.10;99.90;;;;;;5017457;28;20080;-89
2023/09/13 10:48:51;;;;;;;11.95;3.75;;;20.20;99.90;;;;;;5033456;28;20033;-89
2023/09/13 10:51:18;;;;;;;11.07;3.08;;;20.30;99.90;;;;;;5034227;28;20451;-89
2023/09/13 10:53:46;;;;;;;10.60;2.90;;;20.30;99.90;;;;;;5030265;28;20056;-89
2023/09/13 10:56:15;;;;;;;10.32;2.70;;;20.20;99.90;;;;;;5032151;28;20136;-89
2023/09/13 10:58:44;;;;;;;10.65;2.63;;;20.10;99.90;;;;;;5043582;28;20098;-89
2023/09/13 11:01:11;;;;;;;11.60;3.80;;;19.90;99.90;;;;;;5044266;28;20108;-89
2023/09/13 11:03:37;;;;;;;10.15;3.50;;;19.70;99.90;;;;;;5027701;28;20512;-89
2023/09/13 11:06:03;;;;;;;9.60;3.45;;;19.60;99.90;;;;;;5042042;28;20064;-89
2023/09/13 11:08:31;;;;;;;9.45;3.75;;;19.40;99.90;;;;;;5043816;28;20033;-88
2023/09/13 11:11:07;;;;;;;10.60;4.47;;;19.30;99.90;;;;;;5027895;28;20075;-88
2023/09/13 11:13:33;;;;;;;8.27;2.60;;;19.20;99.90;;;;;;5042610;28;20033;-88
2023/09/13 11:16:03;;;;;;;6.07;1.38;;;19.10;99.90;;;;;;5044040;28;20033;-88
2023/09/13 11:18:30;;;;;;;11.07;2.72;;;19.00;99.90;;;;;;5043662;28;20037;-89
2023/09/13 11:20:58;;;;;;;9.32;2.70;;;19.10;99.90;;;;;;5024393;28;20144;-89
2023/09/13 11:23:24;;;;;;;9.55;2.70;;;19.10;99.90;;;;;;5041224;28;20029;-89
2023/09/13 11:25:54;;;;;;;9.52;3.05;;;19.10;99.90;;;;;;5041252;28;20040;-89
2023/09/13 11:28:38;;;;;;;10.10;2.85;;;19.20;99.90;;;;;;5041004;28;20033;-89
2023/09/13 11:31:07;;;;;;;10.55;3.00;;;19.30;99.90;;;;;;5036312;28;20039;-89
2023/09/13 11:33:59;;;;;;;8.23;2.60;;;19.30;99.90;;;;;;5024373;28;20040;-89
2023/09/13 11:36:26;;;;;;;8.23;2.50;;;19.50;99.90;;;;;;5036275;28;20259;-89
2023/09/13 11:38:53;;;;;;;11.25;3.00;;;19.60;99.90;;;;;;5025199;28;20514;-89
2023/09/13 11:41:20;;;;;;;10.27;2.78;;;19.70;99.90;;;;;;5043554;28;20029;-89
2023/09/13 11:43:48;;;;;;;9.02;2.70;;;19.80;99.90;;;;;;5030681;28;20090;-89
2023/09/13 11:46:20;;;;;;;11.65;5.35;;;20.00;99.90;;;;;;5047626;28;20072;-89
2023/09/13 11:48:51;;;;;;;11.27;3.53;;;20.10;99.90;;;;;;5030190;28;20032;-88
2023/09/13 11:51:22;;;;;;;11.18;3.55;;;20.20;99.90;;;;;;5050147;28;20132;-89
2023/09/13 11:53:50;;;;;;;10.05;2.90;;;20.30;99.90;;;;;;5038989;28;20086;-89
2023/09/13 11:56:36;;;;;;;10.27;3.25;;;20.50;99.90;;;;;;5038672;28;20033;-89
2023/09/13 11:59:02;;;;;;;9.75;2.72;;;20.80;99.90;;;;;;5021710;28;20032;-89
2023/09/13 12:01:29;;;;;;;9.25;3.03;;;21.00;99.90;;;;;;5038141;28;20090;-90
2023/09/13 12:03:56;;;;;;;9.63;3.22;;;21.30;99.90;;;;;;5038375;28;20045;-89
2023/09/13 12:06:22;;;;;;;9.50;2.83;;;21.50;99.90;;;;;;5037938;28;20052;-89
2023/09/13 12:08:48;;;;;;;9.50;2.70;;;21.70;99.90;;;;;;5017457;28;20047;-90
2023/09/13 12:11:14;;;;;;;9.02;2.95;;;21.80;99.90;;;;;;5037037;28;20037;-89
2023/09/13 12:13:43;;;;;;;7.93;2.80;;;22.00;99.90;;;;;;5020647;28;20029;-89
2023/09/13 12:16:09;;;;;;;7.63;2.33;;;22.00;99.90;;;;;;5020213;28;20156;-89
2023/09/13 12:18:36;;;;;;;9.27;2.83;;;22.10;99.90;;;;;;5036545;28;20134;-90
2023/09/13 12:21:02;;;;;;;10.52;2.85;;;22.20;99.90;;;;;;5035880;28;20041;-89
2023/09/13 12:23:34;;;;;;;8.73;2.80;;;22.40;99.90;;;;;;5036847;28;20120;-90
2023/09/13 12:26:00;;;;;;;12.60;3.20;;;22.50;99.90;;;;;;5019446;28;20049;-90
2023/09/13 12:28:31;;;;;;;9.80;2.70;;;22.60;99.90;;;;;;5035771;28;20137;-90
2023/09/13 12:30:57;;;;;;;10.65;3.22;;;22.70;99.90;;;;;;5036702;28;20526;-90
2023/09/13 12:33:24;;;;;;;9.75;2.70;;;22.80;99.90;;;;;;5019336;28;20052;-90
2023/09/13 12:35:51;;;;;;;8.07;2.55;;;22.80;99.90;;;;;;5036156;28;20045;-89
2023/09/13 12:38:19;;;;;;;8.82;2.70;;;22.80;99.80;;;;;;5018754;28;20035;-90
2023/09/13 12:40:54;;;;;;;7.28;2.10;;;22.80;98.90;;;;;;5018970;28;20052;-89